createdAt,value
2022-08-10T00:01:34.430Z,75.97
2022-08-10T00:04:02.466Z,75.89
2022-08-10T00:06:29.978Z,75.95
2022-08-10T00:08:57.414Z,76.02
2022-08-10T00:11:26.413Z,76.37
2022-08-10T00:13:53.717Z,76.80
2022-08-10T00:16:20.749Z,76.76
2022-08-10T00:18:47.855Z,77.22
2022-08-10T00:21:15.429Z,76.51
2022-08-10T00:23:42.466Z,76.75
2022-08-10T00:26:09.580Z,76.21
2022-08-10T00:28:39.006Z,76.10
2022-08-10T00:31:06.606Z,77.01
2022-08-10T00:33:33.687Z,77.53
2022-08-10T00:36:00.766Z,77.37
2022-08-10T00:38:27.714Z,77.49
2022-08-10T00:40:54.675Z,76.84
2022-08-10T00:43:23.449Z,76.17
2022-08-10T00:45:59.331Z,76.24
2022-08-10T00:48:31.601Z,77.38
2022-08-10T00:51:01.897Z,77.37
2022-08-10T00:53:29.645Z,78.01
2022-08-10T00:56:34.897Z,78.38
2022-08-10T00:58:45.032Z,78.23
2022-08-10T01:02:10.190Z,78.60
2022-08-10T01:04:36.777Z,77.55
2022-08-10T01:07:14.450Z,78.14
2022-08-10T01:09:59.801Z,78.09
2022-08-10T01:12:49.737Z,78.75
2022-08-10T01:15:31.892Z,78.78
2022-08-10T01:18:14.869Z,79.33
2022-08-10T01:21:20.799Z,79.42
2022-08-10T01:24:02.480Z,79.65
2022-08-10T01:27:07.194Z,80.07
2022-08-10T01:29:39.447Z,79.41
2022-08-10T01:32:10.454Z,80.11
2022-08-10T01:34:52.025Z,80.63
2022-08-10T01:37:26.387Z,79.70
2022-08-10T01:39:58.848Z,80.21
2022-08-10T01:42:29.857Z,79.86
2022-08-10T01:45:02.344Z,79.94
2022-08-10T01:47:57.922Z,80.24
2022-08-10T01:50:59.471Z,79.85
2022-08-10T01:53:56.242Z,80.05
2022-08-10T01:56:28.468Z,80.95
2022-08-10T01:59:04.305Z,80.79
2022-08-10T02:01:39.411Z,80.87
2022-08-10T02:04:12.296Z,81.31
2022-08-10T02:06:46.733Z,80.95
2022-08-10T02:09:30.414Z,81.73
2022-08-10T02:12:08.607Z,81.17
2022-08-10T02:14:44.978Z,81.06
2022-08-10T02:17:57.528Z,81.63
2022-08-10T02:20:14.609Z,81.39
2022-08-10T02:22:45.555Z,81.51
2022-08-10T02:25:40.902Z,81.99
2022-08-10T02:28:05.114Z,82.68
2022-08-10T02:30:34.092Z,82.22
2022-08-10T02:33:02.114Z,83.88
2022-08-10T02:35:31.506Z,84.54
2022-08-10T02:38:59.863Z,84.91
2022-08-10T02:45:13.777Z,83.99
2022-08-10T02:45:19.342Z,83.82
2022-08-10T02:48:00.253Z,84.28
2022-08-10T02:50:32.429Z,84.47
2022-08-10T02:53:06.900Z,84.70
2022-08-10T02:56:05.204Z,83.85
2022-08-10T02:58:39.621Z,84.77
2022-08-10T03:01:14.296Z,83.95
2022-08-10T03:03:53.337Z,83.79
2022-08-10T03:06:25.618Z,85.02
2022-08-10T03:08:55.122Z,85.54
2022-08-10T03:12:16.719Z,84.97
2022-08-10T03:14:17.092Z,84.79
2022-08-10T03:16:46.368Z,85.35
2022-08-10T03:20:34.223Z,85.79
2022-08-10T03:22:03.862Z,85.03
2022-08-10T03:24:33.015Z,84.89
2022-08-10T03:27:01.716Z,86.13
2022-08-10T03:29:31.347Z,86.23
2022-08-10T03:32:20.158Z,86.05
2022-08-10T03:34:47.975Z,85.45
2022-08-10T03:37:15.017Z,84.75
2022-08-10T03:39:42.412Z,84.67
2022-08-10T03:42:15.509Z,84.43
2022-08-10T03:44:47.369Z,84.22
2022-08-10T03:47:19.482Z,83.99
2022-08-10T03:49:49.901Z,83.73
2022-08-10T03:52:19.309Z,83.61
2022-08-10T03:54:46.874Z,83.22
2022-08-10T03:57:14.478Z,81.72
2022-08-10T03:59:41.696Z,74.74
2022-08-10T04:02:46.138Z,69.41
2022-08-10T04:04:56.450Z,65.00
2022-08-10T04:07:23.788Z,60.92
2022-08-10T04:09:55.960Z,57.36
2022-08-10T04:12:24.593Z,54.84
2022-08-10T04:14:53.146Z,53.82
2022-08-10T04:18:03.362Z,49.98
2022-08-10T04:20:53.021Z,47.17
2022-08-10T04:23:25.365Z,45.89
2022-08-10T04:25:53.331Z,44.84
2022-08-10T04:28:20.803Z,42.33
2022-08-10T04:30:50.359Z,40.79
2022-08-10T04:33:21.439Z,39.49
2022-08-10T04:35:49.567Z,36.45
2022-08-10T04:38:18.545Z,34.67
2022-08-10T04:40:46.960Z,33.07
2022-08-10T04:43:14.334Z,31.94
2022-08-10T04:45:49.042Z,31.66
2022-08-10T04:48:42.522Z,31.73
2022-08-10T04:51:18.945Z,28.94
2022-08-10T04:54:03.792Z,30.39
2022-08-10T04:56:37.119Z,29.37
2022-08-10T04:59:06.064Z,29.86
2022-08-10T05:02:22.567Z,27.52
2022-08-10T05:04:36.776Z,26.46
2022-08-10T05:07:11.307Z,27.42
2022-08-10T05:10:04.878Z,26.00
2022-08-10T05:12:31.602Z,24.29
2022-08-10T05:14:58.669Z,24.14
2022-08-10T05:17:26.410Z,24.52
2022-08-10T05:20:03.646Z,24.88
2022-08-10T05:22:38.368Z,23.19
2022-08-10T05:25:08.899Z,22.82
2022-08-10T05:27:36.058Z,22.41
2022-08-10T05:30:04.337Z,23.84
2022-08-10T05:32:57.717Z,23.16
2022-08-10T05:35:23.774Z,23.86
2022-08-10T05:38:09.626Z,23.14
2022-08-10T05:40:46.922Z,23.64
2022-08-10T05:43:17.920Z,22.78
2022-08-10T05:46:18.018Z,22.36
2022-08-10T05:48:54.507Z,21.76
2022-08-10T05:51:20.710Z,21.35
2022-08-10T05:54:02.724Z,21.33
2022-08-10T05:56:56.982Z,21.08
2022-08-10T06:00:29.395Z,21.51
2022-08-10T06:02:41.460Z,21.17
2022-08-10T06:05:11.626Z,19.81
2022-08-10T06:07:49.269Z,19.50
2022-08-10T06:10:30.958Z,19.62
2022-08-10T06:13:30.138Z,20.24
2022-08-10T06:16:09.095Z,19.45
2022-08-10T06:18:39.769Z,19.22
2022-08-10T06:21:09.592Z,18.71
2022-08-10T06:23:39.021Z,19.56
2022-08-10T06:26:11.935Z,18.34
2022-08-10T06:28:52.926Z,18.45
2022-08-10T06:31:48.365Z,18.83
2022-08-10T06:34:25.212Z,18.94
2022-08-10T06:36:54.414Z,19.30
2022-08-10T06:39:38.298Z,20.30
2022-08-10T06:42:17.982Z,19.28
2022-08-10T06:45:23.482Z,19.06
2022-08-10T06:48:04.294Z,18.91
2022-08-10T06:50:55.974Z,17.72
2022-08-10T06:53:52.975Z,18.39
2022-08-10T06:56:38.230Z,18.87
2022-08-10T06:59:34.254Z,17.85
2022-08-10T07:02:17.067Z,18.63
2022-08-10T07:04:54.961Z,17.45
2022-08-10T07:07:27.101Z,18.11
2022-08-10T07:09:57.341Z,18.64
2022-08-10T07:12:25.902Z,18.78
2022-08-10T07:14:55.706Z,18.66
2022-08-10T07:17:26.930Z,19.46
2022-08-10T07:19:57.863Z,17.98
2022-08-10T07:23:51.930Z,19.12
2022-08-10T07:25:25.345Z,19.25
2022-08-10T07:28:00.815Z,18.95
2022-08-10T07:30:33.440Z,20.22
2022-08-10T07:33:02.640Z,19.74
2022-08-10T07:35:41.920Z,22.04
2022-08-10T07:38:38.686Z,22.97
2022-08-10T07:41:07.948Z,23.36
2022-08-10T07:43:40.515Z,24.30
2022-08-10T07:46:14.362Z,25.24
2022-08-10T07:48:49.160Z,24.25
2022-08-10T07:51:19.881Z,25.74
2022-08-10T07:53:52.777Z,25.84
2022-08-10T07:56:47.467Z,27.82
2022-08-10T07:59:18.885Z,28.17
2022-08-10T08:01:51.614Z,27.51
2022-08-10T08:04:22.600Z,28.64
2022-08-10T08:06:52.007Z,28.62
2022-08-10T08:09:21.452Z,29.76
2022-08-10T08:11:50.166Z,28.99
2022-08-10T08:14:19.361Z,31.69
2022-08-10T08:16:51.649Z,33.04
2022-08-10T08:19:28.509Z,33.95
2022-08-10T08:24:08.086Z,34.46
2022-08-10T08:24:57.713Z,34.69
2022-08-10T08:27:27.322Z,34.94
2022-08-10T08:29:54.970Z,34.38
2022-08-10T08:32:27.480Z,35.55
2022-08-10T08:35:24.397Z,33.04
2022-08-10T08:38:32.005Z,33.56
2022-08-10T08:40:47.989Z,31.66
2022-08-10T08:43:47.661Z,32.29
2022-08-10T08:46:39.174Z,32.72
2022-08-10T08:50:04.560Z,31.65
2022-08-10T08:52:46.874Z,31.41
2022-08-10T08:55:56.082Z,32.63
2022-08-10T08:58:29.429Z,32.83
2022-08-10T09:01:24.163Z,32.58
2022-08-10T09:04:40.668Z,32.86
2022-08-10T09:07:39.259Z,31.55
2022-08-10T09:11:19.087Z,29.37
2022-08-10T09:14:00.400Z,29.86
2022-08-10T09:16:53.749Z,29.84
2022-08-10T09:19:47.804Z,29.18
2022-08-10T09:22:43.306Z,28.39
2022-08-10T09:25:37.076Z,29.33
2022-08-10T09:28:06.858Z,29.39
2022-08-10T09:36:22.618Z,29.08
2022-08-10T09:37:39.871Z,29.19
2022-08-10T09:40:57.940Z,29.76
2022-08-10T09:43:26.257Z,29.76
2022-08-10T09:46:11.051Z,28.96
2022-08-10T09:48:51.416Z,30.08
2022-08-10T09:51:54.541Z,30.82
2022-08-10T09:54:38.335Z,31.51
2022-08-10T09:57:57.084Z,31.72
2022-08-10T10:00:35.479Z,31.55
2022-08-10T10:03:27.673Z,30.74
2022-08-10T10:06:21.742Z,30.41
2022-08-10T10:09:12.128Z,30.28
2022-08-10T10:12:14.580Z,29.92
2022-08-10T10:15:24.736Z,30.46
2022-08-10T10:18:30.256Z,31.17
2022-08-10T10:21:54.039Z,31.46
2022-08-10T10:24:41.930Z,32.39
2022-08-10T10:27:36.732Z,32.85
2022-08-10T10:30:11.346Z,32.42
2022-08-10T10:32:59.466Z,32.71
2022-08-10T10:35:45.633Z,32.04
2022-08-10T10:38:15.611Z,31.76
2022-08-10T10:41:20.186Z,31.28
2022-08-10T10:44:42.449Z,31.48
2022-08-10T10:47:46.433Z,32.37
2022-08-10T10:50:31.329Z,32.75
2022-08-10T10:53:10.200Z,33.68
2022-08-10T10:56:13.569Z,33.35
2022-08-10T10:58:52.198Z,32.80
2022-08-10T11:01:21.985Z,33.40
2022-08-10T11:03:58.528Z,32.83
2022-08-10T11:06:50.986Z,33.21
2022-08-10T11:10:08.685Z,32.74
2022-08-10T11:12:55.302Z,33.69
2022-08-10T11:15:59.642Z,33.84
2022-08-10T11:18:33.905Z,33.72
2022-08-10T11:21:26.857Z,33.51
2022-08-10T11:24:47.893Z,33.00
2022-08-10T11:27:28.937Z,34.40
2022-08-10T11:30:09.667Z,34.88
2022-08-10T11:33:07.067Z,34.20
2022-08-10T11:35:50.320Z,34.47
2022-08-10T11:39:04.085Z,34.41
2022-08-10T11:42:18.550Z,34.12
2022-08-10T11:45:12.005Z,33.95
2022-08-10T11:47:54.798Z,34.01
2022-08-10T11:50:35.051Z,34.29
2022-08-10T11:53:23.036Z,33.42
2022-08-10T11:55:57.691Z,33.54
2022-08-10T11:58:58.487Z,33.57
2022-08-10T12:01:32.859Z,32.95
2022-08-10T12:04:11.958Z,33.02
2022-08-10T12:06:55.357Z,34.22
2022-08-10T12:10:10.242Z,34.36
2022-08-10T12:12:13.361Z,32.90
2022-08-10T12:15:04.052Z,32.23
2022-08-10T12:17:53.759Z,33.81
2022-08-10T12:20:31.744Z,33.45
2022-08-10T12:23:22.365Z,32.67
2022-08-10T12:25:58.709Z,32.18
2022-08-10T12:28:50.082Z,32.25
2022-08-10T12:31:29.826Z,32.75
2022-08-10T12:34:32.123Z,34.09
2022-08-10T12:37:27.484Z,35.23
2022-08-10T12:40:35.131Z,36.55
2022-08-10T12:44:06.989Z,36.91
2022-08-10T12:46:41.988Z,37.93
2022-08-10T12:50:20.059Z,37.30
2022-08-10T12:52:54.885Z,36.56
2022-08-10T12:55:23.434Z,35.95
2022-08-10T12:57:55.390Z,35.80
2022-08-10T13:00:33.415Z,36.36
2022-08-10T13:03:03.409Z,35.26
2022-08-10T13:06:02.550Z,35.83
2022-08-10T13:08:41.883Z,35.69
2022-08-10T13:12:35.447Z,35.06
2022-08-10T13:14:15.151Z,35.43
2022-08-10T13:16:44.320Z,35.18
2022-08-10T13:19:14.622Z,35.40
2022-08-10T13:21:42.980Z,34.89
2022-08-10T13:24:26.111Z,35.06
2022-08-10T13:27:25.107Z,34.88
2022-08-10T13:30:07.016Z,34.52
2022-08-10T13:32:39.483Z,33.81
2022-08-10T13:35:14.279Z,34.57
2022-08-10T13:37:47.029Z,34.73
2022-08-10T13:40:19.536Z,34.80
2022-08-10T13:42:49.906Z,34.61
2022-08-10T13:45:21.956Z,35.32
2022-08-10T13:47:54.147Z,35.03
2022-08-10T13:50:33.099Z,34.37
2022-08-10T13:53:11.627Z,33.51
2022-08-10T13:55:56.540Z,34.23
2022-08-10T13:58:42.229Z,32.78
2022-08-10T14:01:15.829Z,32.39
2022-08-10T14:03:46.484Z,32.84
2022-08-10T14:06:16.390Z,32.93
2022-08-10T14:09:02.076Z,33.93
2022-08-10T14:11:30.483Z,33.72
2022-08-10T14:14:13.738Z,33.24
2022-08-10T14:16:45.887Z,34.06
2022-08-10T14:19:27.780Z,35.18
2022-08-10T14:21:56.760Z,35.86
2022-08-10T14:24:31.426Z,35.87
2022-08-10T14:27:08.861Z,36.24
2022-08-10T14:29:49.430Z,36.26
2022-08-10T14:32:21.610Z,36.92
2022-08-10T14:36:15.520Z,37.15
2022-08-10T14:37:50.087Z,37.47
2022-08-10T14:40:22.058Z,37.29
2022-08-10T14:43:04.572Z,37.79
2022-08-10T14:45:37.205Z,37.64
2022-08-10T14:48:08.732Z,37.97
2022-08-10T14:50:54.870Z,38.48
2022-08-10T14:53:27.960Z,38.24
2022-08-10T14:56:10.909Z,38.18
2022-08-10T14:58:58.926Z,37.56
2022-08-10T15:02:00.159Z,37.38
2022-08-10T15:04:26.528Z,37.56
2022-08-10T15:07:13.758Z,37.20
2022-08-10T15:10:01.016Z,37.53
2022-08-10T15:12:38.901Z,37.68
2022-08-10T15:15:16.336Z,38.88
2022-08-10T15:17:52.901Z,38.61
2022-08-10T15:20:24.701Z,39.39
2022-08-10T15:23:31.094Z,39.50
2022-08-10T15:26:11.279Z,39.29
2022-08-10T15:29:24.197Z,39.19
2022-08-10T15:31:35.480Z,40.12
2022-08-10T15:34:28.712Z,40.63
2022-08-10T15:37:40.484Z,41.08
2022-08-10T15:40:24.362Z,41.07
2022-08-10T15:43:20.664Z,40.20
2022-08-10T15:46:10.678Z,40.39
2022-08-10T15:48:48.072Z,41.06
2022-08-10T15:51:54.210Z,40.64
2022-08-10T15:54:38.192Z,40.43
2022-08-10T15:57:23.760Z,40.60
2022-08-10T15:59:58.576Z,40.67
2022-08-10T16:06:43.829Z,40.79
2022-08-10T16:10:23.313Z,40.89
2022-08-10T16:12:36.482Z,40.96
2022-08-10T16:15:14.654Z,41.53
2022-08-10T16:18:00.006Z,41.13
2022-08-10T16:20:53.311Z,41.29
2022-08-10T16:23:34.341Z,40.18
2022-08-10T16:26:14.471Z,40.48
2022-08-10T16:28:50.643Z,41.60
2022-08-10T16:31:23.136Z,41.59
2022-08-10T16:33:58.402Z,41.72
2022-08-10T16:36:41.599Z,41.13
2022-08-10T16:39:18.158Z,39.63
2022-08-10T16:42:08.155Z,40.49
2022-08-10T16:44:50.087Z,41.06
2022-08-10T16:47:17.731Z,41.06
2022-08-10T16:49:47.836Z,41.18
2022-08-10T16:52:17.115Z,42.15
2022-08-10T16:54:50.145Z,42.25
2022-08-10T16:57:19.628Z,42.94
2022-08-10T16:59:48.127Z,42.12
2022-08-10T17:02:19.440Z,41.91
2022-08-10T17:04:48.572Z,41.98
2022-08-10T17:07:18.801Z,42.53
2022-08-10T17:09:52.900Z,42.67
2022-08-10T17:12:27.314Z,42.65
2022-08-10T17:15:09.093Z,42.37
2022-08-10T17:17:47.651Z,42.58
2022-08-10T17:20:30.904Z,42.77
2022-08-10T17:23:04.866Z,42.81
2022-08-10T17:25:48.600Z,43.13
2022-08-10T17:28:34.957Z,42.76
2022-08-10T17:31:49.491Z,42.49
2022-08-10T17:34:18.172Z,43.21
2022-08-10T17:36:59.410Z,43.82
2022-08-10T17:39:41.268Z,43.78
2022-08-10T17:42:09.233Z,44.15
2022-08-10T17:44:40.890Z,44.70
2022-08-10T17:47:11.669Z,44.37
2022-08-10T17:49:42.233Z,44.90
2022-08-10T17:52:13.978Z,45.23
2022-08-10T17:54:44.483Z,45.17
2022-08-10T17:57:21.393Z,45.99
2022-08-10T17:59:52.888Z,46.21
2022-08-10T18:02:27.551Z,45.96
2022-08-10T18:04:58.831Z,46.34
2022-08-10T18:07:40.964Z,46.37
2022-08-10T18:10:11.495Z,46.63
2022-08-10T18:12:54.573Z,47.11
2022-08-10T18:15:26.912Z,47.51
2022-08-10T18:18:00.735Z,47.44
2022-08-10T18:20:37.227Z,47.29
2022-08-10T18:23:07.434Z,48.03
2022-08-10T18:25:39.530Z,48.61
2022-08-10T18:28:14.962Z,48.53
2022-08-10T18:30:53.538Z,49.07
2022-08-10T18:33:31.274Z,49.02
2022-08-10T18:36:03.639Z,49.01
2022-08-10T18:38:33.569Z,49.86
2022-08-10T18:41:07.218Z,49.76
2022-08-10T18:44:10.414Z,49.67
2022-08-10T18:46:46.001Z,50.43
2022-08-10T18:49:39.090Z,51.17
2022-08-10T18:52:14.697Z,51.11
2022-08-10T18:54:49.908Z,51.47
2022-08-10T18:57:50.509Z,51.80
2022-08-10T19:00:22.799Z,52.05
2022-08-10T19:03:31.592Z,52.16
2022-08-10T19:06:44.270Z,52.79
2022-08-10T19:09:47.142Z,52.77
2022-08-10T19:12:30.944Z,53.15
2022-08-10T19:15:18.705Z,53.30
2022-08-10T19:18:17.213Z,53.83
2022-08-10T19:20:49.856Z,53.41
2022-08-10T19:23:29.040Z,54.16
2022-08-10T19:26:44.838Z,53.38
2022-08-10T19:30:08.969Z,53.17
2022-08-10T19:32:54.964Z,53.09
2022-08-10T19:36:03.052Z,53.16
2022-08-10T19:39:00.841Z,52.69
2022-08-10T19:41:44.333Z,52.64
2022-08-10T19:44:58.455Z,51.77
2022-08-10T19:47:53.321Z,51.43
2022-08-10T19:50:37.600Z,51.41
2022-08-10T19:53:10.001Z,51.15
2022-08-10T19:55:50.274Z,51.17
2022-08-10T19:58:36.411Z,52.45
2022-08-10T20:01:06.977Z,51.54
2022-08-10T20:03:59.505Z,51.45
2022-08-10T20:06:50.163Z,51.83
2022-08-10T20:09:34.728Z,52.54
2022-08-10T20:12:08.338Z,53.12
2022-08-10T20:14:56.103Z,53.20
2022-08-10T20:17:51.732Z,52.70
2022-08-10T20:20:34.576Z,51.72
2022-08-10T20:23:30.370Z,52.35
2022-08-10T20:26:15.295Z,53.20
2022-08-10T20:29:57.291Z,53.74
2022-08-10T20:32:24.578Z,53.84
2022-08-10T20:35:04.617Z,53.69
2022-08-10T20:38:03.565Z,53.67
2022-08-10T20:41:14.447Z,53.83
2022-08-10T20:44:04.355Z,54.00
2022-08-10T20:47:01.540Z,54.26
2022-08-10T20:50:03.115Z,54.17
2022-08-10T20:52:33.738Z,53.98
2022-08-10T20:55:09.908Z,54.23
2022-08-10T20:58:04.335Z,54.52
2022-08-10T21:01:06.182Z,55.61
2022-08-10T21:04:27.431Z,55.64
2022-08-10T21:07:22.131Z,55.63
2022-08-10T21:10:06.428Z,56.09
2022-08-10T21:13:10.477Z,56.31
2022-08-10T21:15:55.519Z,56.46
2022-08-10T21:18:45.011Z,56.85
2022-08-10T21:21:59.704Z,57.23
2022-08-10T21:24:40.964Z,57.65
2022-08-10T21:27:47.122Z,57.91
2022-08-10T21:30:28.940Z,58.17
2022-08-10T21:33:37.956Z,58.58
2022-08-10T21:36:31.991Z,58.01
2022-08-10T21:39:43.719Z,58.49
2022-08-10T21:43:03.458Z,58.44
2022-08-10T21:46:22.987Z,58.58
2022-08-10T21:49:36.955Z,58.77
2022-08-10T21:52:33.305Z,58.63
2022-08-10T21:55:57.268Z,58.63
2022-08-10T21:59:20.298Z,58.82
2022-08-10T22:02:28.265Z,59.20
2022-08-10T22:05:22.026Z,58.79
2022-08-10T22:08:14.893Z,59.45
2022-08-10T22:11:08.717Z,59.47
2022-08-10T22:14:06.284Z,59.46
2022-08-10T22:17:59.937Z,59.36
2022-08-10T22:20:53.554Z,59.09
2022-08-10T22:24:19.906Z,58.69
2022-08-10T22:27:46.896Z,58.80
2022-08-10T22:30:23.441Z,59.53
2022-08-10T22:33:48.188Z,59.84
2022-08-10T22:37:02.877Z,60.30
2022-08-10T22:40:13.429Z,60.48
2022-08-10T22:43:10.924Z,60.03
2022-08-10T22:46:07.263Z,59.65
2022-08-10T22:49:00.693Z,59.91
2022-08-10T22:51:42.587Z,59.73
2022-08-10T22:54:41.494Z,60.04
2022-08-10T22:57:34.032Z,60.29
2022-08-10T23:00:28.687Z,59.52
2022-08-10T23:03:21.920Z,59.47
2022-08-10T23:06:07.412Z,60.31
2022-08-10T23:08:52.075Z,60.34
2022-08-10T23:11:35.731Z,60.22
2022-08-10T23:14:12.511Z,61.30
2022-08-10T23:17:09.342Z,62.06
2022-08-10T23:19:46.105Z,62.53
2022-08-10T23:22:16.796Z,62.62
2022-08-10T23:24:52.884Z,63.50
2022-08-10T23:27:38.849Z,63.60
2022-08-10T23:30:18.027Z,63.95
2022-08-10T23:32:52.066Z,64.59
2022-08-10T23:36:31.268Z,65.18
2022-08-10T23:38:16.697Z,65.19
2022-08-10T23:40:47.261Z,65.80
2022-08-10T23:43:46.641Z,65.76
2022-08-10T23:46:17.734Z,65.25
2022-08-10T23:48:47.033Z,65.31
2022-08-10T23:51:17.469Z,65.39
2022-08-10T23:53:47.786Z,65.24
2022-08-10T23:56:19.343Z,65.67
2022-08-10T23:58:49.864Z,65.70
